Time;durP1;ratioP1;P1;durP2;ratioP2;P2;SDS_P1;SDS_P2;PMS_P1;PMS_P2;Temp;Humidity;BMP_temperature;BMP_pressure;BME280_temperature;BME280_humidity;BME280_pressure;Samples;Min_cycle;Max_cycle;Signal;HPM_P1;HPM_P2
2021/09/18 00:02:19;;;;;;;6.72;6.07;;;17.80;99.90;;;;;;5055989;28;20028;-46
2021/09/18 00:04:45;;;;;;;6.05;5.45;;;17.70;99.90;;;;;;5055919;28;20021;-48
2021/09/18 00:07:11;;;;;;;6.72;5.78;;;17.70;99.90;;;;;;5037378;28;20052;-47
2021/09/18 00:09:37;;;;;;;7.80;5.20;;;17.80;99.90;;;;;;5055839;28;20112;-47
2021/09/18 00:12:03;;;;;;;7.13;5.93;;;17.70;99.90;;;;;;5020767;28;20057;-47
2021/09/18 00:14:29;;;;;;;6.43;5.82;;;17.70;99.90;;;;;;4988133;28;20083;-47
2021/09/18 00:16:54;;;;;;;6.25;5.65;;;17.90;99.90;;;;;;5055424;28;20045;-47
2021/09/18 00:19:20;;;;;;;5.88;5.28;;;17.80;99.90;;;;;;5055594;28;20071;-48
2021/09/18 00:21:46;;;;;;;7.38;5.40;;;17.90;99.90;;;;;;5020722;28;20033;-48
2021/09/18 00:24:12;;;;;;;6.00;5.50;;;18.00;99.90;;;;;;5037050;28;20124;-48
2021/09/18 00:26:38;;;;;;;7.18;5.60;;;18.00;99.90;;;;;;5055754;28;20071;-47
2021/09/18 00:29:04;;;;;;;6.32;5.72;;;18.10;99.90;;;;;;5020545;28;20041;-48
2021/09/18 00:31:30;;;;;;;5.35;4.85;;;18.10;99.90;;;;;;5055483;28;20040;-48
2021/09/18 00:33:57;;;;;;;6.45;5.28;;;18.00;99.90;;;;;;5003690;28;20438;-48
2021/09/18 00:36:23;;;;;;;6.22;5.43;;;18.00;99.90;;;;;;5055527;28;20033;-48
2021/09/18 00:38:49;;;;;;;5.75;5.20;;;17.90;99.90;;;;;;5055209;28;20494;-48
2021/09/18 00:41:15;;;;;;;5.60;5.10;;;18.00;99.90;;;;;;5055357;28;20024;-48
2021/09/18 00:43:41;;;;;;;6.57;5.00;;;18.00;99.90;;;;;;5055068;28;20025;-48
2021/09/18 00:46:06;;;;;;;6.13;5.43;;;18.00;99.90;;;;;;4947986;28;20048;-48
2021/09/18 00:48:32;;;;;;;8.00;5.50;;;18.00;99.90;;;;;;5013352;28;20533;-48
2021/09/18 00:50:58;;;;;;;6.00;5.15;;;18.00;99.90;;;;;;5013235;28;20478;-48
2021/09/18 00:53:24;;;;;;;5.72;5.22;;;18.00;99.90;;;;;;4980647;28;20042;-48
2021/09/18 00:55:50;;;;;;;5.50;5.00;;;18.10;99.90;;;;;;5013151;28;20441;-48
2021/09/18 00:58:16;;;;;;;6.93;4.63;;;18.20;99.90;;;;;;5012988;28;20038;-48
2021/09/18 01:00:42;;;;;;;7.13;5.43;;;18.20;99.90;;;;;;5013037;28;20116;-48
2021/09/18 01:03:08;;;;;;;5.63;5.13;;;18.30;99.90;;;;;;5013108;28;20030;-48
2021/09/18 01:05:35;;;;;;;8.70;5.40;;;18.30;99.90;;;;;;5012824;28;20096;-48
2021/09/18 01:08:02;;;;;;;5.95;5.35;;;18.20;99.90;;;;;;5012808;28;20033;-48
2021/09/18 01:10:28;;;;;;;7.22;5.60;;;18.30;99.90;;;;;;4993213;28;20037;-48
2021/09/18 01:13:12;;;;;;;5.80;5.00;;;18.40;99.90;;;;;;4993262;28;20046;-48
2021/09/18 01:15:39;;;;;;;5.93;5.35;;;18.40;99.90;;;;;;4993075;28;20397;-47
2021/09/18 01:18:07;;;;;;;6.25;5.65;;;18.50;99.90;;;;;;4978466;28;20081;-48
2021/09/18 01:20:33;;;;;;;6.07;5.50;;;18.50;99.90;;;;;;5012815;28;20048;-48
2021/09/18 01:23:01;;;;;;;5.45;4.95;;;18.50;99.90;;;;;;5012732;28;20045;-48
2021/09/18 01:25:29;;;;;;;5.93;5.32;;;18.60;99.90;;;;;;5012571;28;20030;-48
2021/09/18 01:27:55;;;;;;;6.75;5.03;;;18.60;99.90;;;;;;4960745;28;20058;-48
2021/09/18 01:30:28;;;;;;;7.03;5.03;;;18.60;99.90;;;;;;4992977;28;20183;-48
2021/09/18 01:32:55;;;;;;;6.70;5.18;;;18.60;99.90;;;;;;4992874;28;20046;-48
2021/09/18 01:35:22;;;;;;;6.70;5.43;;;18.60;99.90;;;;;;4992703;28;20081;-48
2021/09/18 01:37:47;;;;;;;6.07;5.30;;;18.60;99.90;;;;;;4992765;28;20046;-48
2021/09/18 01:40:22;;;;;;;6.30;5.70;;;18.60;99.90;;;;;;4976424;28;20045;-48
2021/09/18 01:42:48;;;;;;;6.63;5.13;;;18.60;99.90;;;;;;4992682;28;20038;-48
2021/09/18 01:45:15;;;;;;;7.45;5.05;;;18.60;99.90;;;;;;4975878;28;20396;-48
2021/09/18 01:47:49;;;;;;;6.38;5.78;;;18.60;99.90;;;;;;4984184;28;20050;-48
2021/09/18 01:50:44;;;;;;;7.07;5.30;;;18.60;99.90;;;;;;5012274;28;20072;-49
2021/09/18 01:53:11;;;;;;;9.27;5.20;;;18.60;99.90;;;;;;5012151;28;20049;-48
2021/09/18 01:55:37;;;;;;;5.75;5.15;;;18.70;99.90;;;;;;5011870;28;20076;-48
2021/09/18 01:58:05;;;;;;;7.00;5.68;;;18.60;99.90;;;;;;5018011;28;20476;-48
2021/09/18 02:00:31;;;;;;;6.65;5.70;;;18.60;99.90;;;;;;5050628;28;20048;-48
2021/09/18 02:02:57;;;;;;;6.32;5.72;;;18.50;99.90;;;;;;5012037;28;20042;-48
2021/09/18 02:05:27;;;;;;;7.60;5.95;;;18.50;99.90;;;;;;5011858;28;20048;-48
2021/09/18 02:07:54;;;;;;;6.25;5.55;;;18.50;99.90;;;;;;5011908;28;20034;-48
2021/09/18 02:10:23;;;;;;;6.18;5.57;;;18.50;99.90;;;;;;5009041;28;20030;-47
2021/09/18 02:12:49;;;;;;;8.98;6.05;;;18.50;99.90;;;;;;5011942;28;20038;-47
2021/09/18 02:15:18;;;;;;;10.30;6.32;;;18.50;99.90;;;;;;4978903;28;20037;-47
2021/09/18 02:17:44;;;;;;;7.35;5.93;;;18.60;99.90;;;;;;5011842;28;20038;-47
2021/09/18 02:20:13;;;;;;;7.28;5.60;;;18.60;99.90;;;;;;5011639;28;20137;-47
2021/09/18 02:22:40;;;;;;;8.13;6.43;;;18.40;99.90;;;;;;5009159;28;20418;-47
2021/09/18 02:25:07;;;;;;;6.90;6.10;;;18.50;99.90;;;;;;5011593;28;20021;-47
2021/09/18 02:27:32;;;;;;;7.70;6.30;;;18.50;99.90;;;;;;4979279;28;20431;-47
2021/09/18 02:29:58;;;;;;;7.35;6.07;;;18.50;99.90;;;;;;5011523;28;20113;-47
2021/09/18 02:32:24;;;;;;;6.57;5.47;;;18.50;99.90;;;;;;5011406;28;20025;-47
2021/09/18 02:34:50;;;;;;;6.80;6.10;;;18.50;99.90;;;;;;5048434;28;20364;-47
2021/09/18 02:37:16;;;;;;;10.10;6.57;;;18.50;99.90;;;;;;5053468;28;20484;-47
2021/09/18 02:39:42;;;;;;;10.45;6.15;;;18.50;99.90;;;;;;5018400;28;20040;-47
2021/09/18 02:42:08;;;;;;;6.20;5.60;;;18.40;99.90;;;;;;5018424;28;20037;-47
2021/09/18 02:44:34;;;;;;;8.30;6.20;;;18.30;99.90;;;;;;5034775;28;20061;-47
2021/09/18 02:47:00;;;;;;;9.70;6.00;;;18.30;99.90;;;;;;5052934;28;20052;-48
2021/09/18 02:49:26;;;;;;;7.10;6.40;;;18.30;99.90;;;;;;5053135;28;20025;-47
2021/09/18 02:51:51;;;;;;;7.85;6.47;;;18.00;99.90;;;;;;5053096;28;20048;-47
2021/09/18 02:54:17;;;;;;;7.25;6.03;;;18.10;99.90;;;;;;5052934;28;20022;-47
2021/09/18 02:56:43;;;;;;;6.60;5.88;;;18.10;99.90;;;;;;5052972;28;20040;-47
2021/09/18 02:59:09;;;;;;;7.55;5.75;;;18.10;99.90;;;;;;5057097;28;20357;-47
2021/09/18 03:01:35;;;;;;;7.38;5.13;;;18.00;99.90;;;;;;5005757;28;20033;-47
2021/09/18 03:04:01;;;;;;;7.15;5.30;;;17.80;99.90;;;;;;5056979;28;20021;-47
2021/09/18 03:06:27;;;;;;;6.45;5.25;;;17.60;99.90;;;;;;5056972;28;20020;-47
2021/09/18 03:08:55;;;;;;;4.93;4.43;;;17.60;99.90;;;;;;5056915;28;20032;-47
2021/09/18 03:11:22;;;;;;;5.47;4.93;;;17.50;99.90;;;;;;5056862;28;20473;-48
2021/09/18 03:13:48;;;;;;;5.22;4.72;;;17.60;99.90;;;;;;5056967;28;20369;-48
2021/09/18 03:16:14;;;;;;;6.00;5.40;;;17.60;99.90;;;;;;5021940;28;20484;-48
2021/09/18 03:18:39;;;;;;;5.57;4.72;;;17.70;99.90;;;;;;5056690;28;20039;-48
2021/09/18 03:21:05;;;;;;;7.70;5.28;;;17.70;99.90;;;;;;5056628;28;20107;-48
2021/09/18 03:23:31;;;;;;;6.05;4.90;;;17.70;99.90;;;;;;5056709;28;20419;-48
2021/09/18 03:25:57;;;;;;;6.25;4.88;;;17.80;99.90;;;;;;5056668;28;20087;-48
2021/09/18 03:28:23;;;;;;;7.22;5.30;;;17.80;99.90;;;;;;5038045;28;20489;-48
2021/09/18 03:30:48;;;;;;;7.10;5.05;;;17.80;99.90;;;;;;5056471;28;20029;-47
2021/09/18 03:33:14;;;;;;;5.93;5.30;;;17.80;99.90;;;;;;5056416;28;20033;-48
2021/09/18 03:35:42;;;;;;;6.90;5.60;;;17.80;99.90;;;;;;5056657;28;20036;-48
2021/09/18 03:38:09;;;;;;;6.95;5.25;;;17.80;99.90;;;;;;5056731;28;20032;-48
2021/09/18 03:40:34;;;;;;;6.32;5.57;;;17.80;99.90;;;;;;5056307;28;20542;-48
2021/09/18 03:43:01;;;;;;;7.13;6.00;;;17.70;99.90;;;;;;5021370;28;20029;-49
2021/09/18 03:45:27;;;;;;;6.25;5.50;;;17.70;99.90;;;;;;5055839;28;20041;-48
2021/09/18 03:47:53;;;;;;;6.53;5.25;;;17.80;99.90;;;;;;5021463;28;20098;-45
2021/09/18 03:50:19;;;;;;;9.98;5.93;;;17.70;99.90;;;;;;5056149;28;20480;-46
2021/09/18 03:52:44;;;;;;;6.40;5.80;;;17.70;99.90;;;;;;5004855;28;20036;-46
2021/09/18 03:55:10;;;;;;;6.53;5.43;;;17.60;99.90;;;;;;5056273;28;20029;-47
2021/09/18 03:57:37;;;;;;;6.50;5.75;;;17.60;99.90;;;;;;5021143;28;20492;-47
2021/09/18 04:00:05;;;;;;;6.40;5.80;;;17.70;99.90;;;;;;5056038;28;20033;-47
2021/09/18 04:02:30;;;;;;;6.90;5.82;;;17.70;99.90;;;;;;4972294;28;20499;-47
2021/09/18 04:04:56;;;;;;;11.25;5.72;;;17.70;99.90;;;;;;5055733;28;20025;-46
2021/09/18 04:07:22;;;;;;;8.50;5.88;;;17.70;99.90;;;;;;5055684;28;20020;-47
2021/09/18 04:09:47;;;;;;;6.88;6.15;;;17.50;99.90;;;;;;5055325;28;20153;-46
2021/09/18 04:12:14;;;;;;;7.22;6.53;;;17.50;99.90;;;;;;5055947;28;20053;-47
2021/09/18 04:14:40;;;;;;;8.10;7.30;;;17.50;99.90;;;;;;5055522;28;20060;-47
2021/09/18 04:17:06;;;;;;;8.88;6.85;;;17.50;99.90;;;;;;5055681;28;20064;-46
2021/09/18 04:19:32;;;;;;;9.80;7.22;;;17.50;99.90;;;;;;5055548;28;20105;-47
2021/09/18 04:21:57;;;;;;;10.82;7.53;;;17.40;99.90;;;;;;5021004;28;20036;-46
2021/09/18 04:24:23;;;;;;;10.60;7.70;;;17.40;99.90;;;;;;5055430;28;20079;-47
2021/09/18 04:26:49;;;;;;;9.25;7.45;;;17.50;99.90;;;;;;5013823;28;20073;-46
2021/09/18 04:29:15;;;;;;;10.48;7.43;;;17.50;99.90;;;;;;5013779;28;20092;-47
2021/09/18 04:31:41;;;;;;;7.85;6.75;;;17.60;99.90;;;;;;5013624;28;20049;-47
2021/09/18 04:34:08;;;;;;;9.10;6.80;;;17.50;99.90;;;;;;4997437;28;20037;-47
2021/09/18 04:36:34;;;;;;;8.93;6.45;;;17.60;99.90;;;;;;5013672;28;20041;-47
2021/09/18 04:39:00;;;;;;;9.85;6.63;;;17.50;99.90;;;;;;5013485;28;20033;-47
2021/09/18 04:41:26;;;;;;;7.57;6.78;;;17.50;99.90;;;;;;5013322;28;20034;-47
2021/09/18 04:43:53;;;;;;;9.55;7.20;;;17.50;99.90;;;;;;5013454;28;20044;-47
2021/09/18 04:46:19;;;;;;;9.23;6.88;;;17.50;99.90;;;;;;5013111;28;20068;-47
2021/09/18 04:48:45;;;;;;;9.95;7.88;;;17.50;99.90;;;;;;5013142;28;20022;-47
2021/09/18 04:51:11;;;;;;;8.95;7.38;;;17.50;99.90;;;;;;5013337;28;20421;-47
2021/09/18 04:53:37;;;;;;;8.38;6.95;;;17.50;99.90;;;;;;5013587;28;20087;-47
2021/09/18 04:56:03;;;;;;;10.73;6.78;;;17.50;99.90;;;;;;5013754;28;20130;-47
2021/09/18 04:58:30;;;;;;;8.48;6.85;;;17.50;99.90;;;;;;4999227;28;20469;-47
2021/09/18 05:00:56;;;;;;;8.93;7.20;;;17.50;99.90;;;;;;5054556;28;20025;-47
2021/09/18 05:03:22;;;;;;;15.57;8.65;;;17.40;99.90;;;;;;5054235;28;20095;-47
2021/09/18 05:05:48;;;;;;;10.30;7.18;;;17.50;99.90;;;;;;5054191;28;20025;-47
2021/09/18 05:08:15;;;;;;;14.95;7.28;;;17.50;99.90;;;;;;5023536;28;20033;-47
2021/09/18 05:10:41;;;;;;;10.07;7.47;;;17.50;99.90;;;;;;5054323;28;20063;-47
2021/09/18 05:13:06;;;;;;;8.85;6.97;;;17.60;99.90;;;;;;5054772;28;20389;-47
2021/09/18 05:15:32;;;;;;;11.50;7.22;;;17.70;99.90;;;;;;5002738;28;20032;-47
2021/09/18 05:17:58;;;;;;;7.78;6.90;;;17.60;99.90;;;;;;5003393;28;20048;-47
2021/09/18 05:20:24;;;;;;;8.45;7.25;;;17.40;99.90;;;;;;5053544;28;20059;-47
2021/09/18 05:22:50;;;;;;;10.52;7.68;;;17.50;99.90;;;;;;5054316;28;20024;-47
2021/09/18 05:25:16;;;;;;;10.73;8.05;;;17.50;99.90;;;;;;5054192;28;20029;-48
2021/09/18 05:27:42;;;;;;;8.57;7.68;;;17.50;99.90;;;;;;5054381;28;20033;-48
2021/09/18 05:30:08;;;;;;;9.88;7.60;;;17.50;99.90;;;;;;5019405;28;20120;-47
2021/09/18 05:32:34;;;;;;;9.25;8.18;;;17.60;99.90;;;;;;4971079;28;20032;-48
2021/09/18 05:35:00;;;;;;;11.65;8.30;;;17.70;99.90;;;;;;5054281;28;20036;-47
2021/09/18 05:37:26;;;;;;;9.00;7.35;;;17.60;99.90;;;;;;5002677;28;20041;-48
2021/09/18 05:39:52;;;;;;;11.30;8.05;;;17.60;99.90;;;;;;5053963;28;20090;-48
2021/09/18 05:42:17;;;;;;;10.43;7.63;;;17.60;99.90;;;;;;5052838;28;20040;-48
2021/09/18 05:44:43;;;;;;;8.65;7.45;;;17.70;99.90;;;;;;5052807;28;20028;-48
2021/09/18 05:47:09;;;;;;;14.18;8.38;;;17.60;99.90;;;;;;5054473;28;20041;-48
2021/09/18 05:49:35;;;;;;;12.57;7.93;;;17.70;99.90;;;;;;4990112;28;20044;-49
2021/09/18 05:52:01;;;;;;;10.30;8.60;;;17.70;99.90;;;;;;5052756;28;20029;-48
2021/09/18 05:54:30;;;;;;;13.15;9.02;;;17.90;99.90;;;;;;5010077;28;20484;-48
2021/09/18 05:56:56;;;;;;;9.60;7.97;;;17.90;99.90;;;;;;5053554;28;20041;-47
2021/09/18 05:59:22;;;;;;;9.55;7.85;;;18.00;99.90;;;;;;5052962;28;20440;-47
2021/09/18 06:01:48;;;;;;;10.43;8.48;;;18.00;99.90;;;;;;5053226;28;20048;-47
2021/09/18 06:04:13;;;;;;;11.73;8.43;;;17.90;99.90;;;;;;5026449;28;20488;-47
2021/09/18 06:06:39;;;;;;;11.55;8.32;;;18.10;99.90;;;;;;5043019;28;20033;-47
2021/09/18 06:09:05;;;;;;;12.75;8.38;;;18.20;99.90;;;;;;5035180;28;20033;-47
2021/09/18 06:11:31;;;;;;;11.75;8.40;;;18.30;99.90;;;;;;5053669;28;20116;-47
2021/09/18 06:13:57;;;;;;;10.90;7.45;;;18.40;99.90;;;;;;4987298;28;20047;-47
2021/09/18 06:16:23;;;;;;;11.27;8.23;;;18.40;99.90;;;;;;5051276;28;20122;-47
2021/09/18 06:18:50;;;;;;;9.55;7.07;;;18.50;99.90;;;;;;5024846;28;20487;-47
2021/09/18 06:21:15;;;;;;;11.63;7.63;;;18.60;99.90;;;;;;5033799;28;20369;-47
2021/09/18 06:23:41;;;;;;;9.13;7.05;;;18.70;99.90;;;;;;5033561;28;20060;-47
2021/09/18 06:26:08;;;;;;;10.85;8.23;;;18.60;99.90;;;;;;5041157;28;20107;-47
2021/09/18 06:28:35;;;;;;;10.98;7.90;;;18.70;99.90;;;;;;5034300;28;20497;-45
2021/09/18 06:31:01;;;;;;;12.30;8.32;;;18.70;99.90;;;;;;5059067;28;20041;-45
2021/09/18 06:46:48;;;;;;;8.73;6.25;;;19.10;99.90;;;;;;5173790;27;20775;-44
2021/09/18 06:49:13;;;;;;;8.43;5.88;;;20.30;99.90;;;;;;5173521;27;20029;-45
2021/09/18 06:51:39;;;;;;;7.97;5.93;;;20.00;99.90;;;;;;5119899;27;20039;-44
2021/09/18 06:54:05;;;;;;;10.18;5.35;;;19.80;99.90;;;;;;5120192;27;20062;-44
2021/09/18 06:56:31;;;;;;;7.95;5.43;;;19.60;99.90;;;;;;5173790;27;20050;-45
2021/09/18 06:58:57;;;;;;;7.38;5.20;;;19.50;99.90;;;;;;5173800;27;20018;-45
2021/09/18 07:01:23;;;;;;;21.27;7.25;;;19.80;99.90;;;;;;5173210;27;20022;-44
2021/09/18 07:03:49;;;;;;;8.65;5.18;;;19.80;99.90;;;;;;5173276;27;20026;-45
2021/09/18 07:06:15;;;;;;;6.30;5.15;;;19.70;99.90;;;;;;5164142;27;20023;-44
2021/09/18 07:08:41;;;;;;;8.10;6.28;;;19.70;99.90;;;;;;5166090;27;20026;-45
2021/09/18 07:11:07;;;;;;;7.75;5.97;;;19.90;99.90;;;;;;5168806;27;20079;-44
2021/09/18 07:13:33;;;;;;;10.35;7.05;;;19.80;99.90;;;;;;5159740;27;20040;-44
2021/09/18 07:15:58;;;;;;;7.20;5.72;;;19.90;99.90;;;;;;5163827;27;20083;-45
2021/09/18 07:18:24;;;;;;;10.63;5.05;;;20.00;99.90;;;;;;5161397;27;20030;-44
2021/09/18 07:20:50;;;;;;;7.70;4.82;;;20.30;99.90;;;;;;5153474;27;20033;-44
2021/09/18 07:23:16;;;;;;;7.03;4.90;;;20.30;99.90;;;;;;5161527;27;20031;-43
2021/09/18 07:25:42;;;;;;;6.93;5.10;;;20.10;99.90;;;;;;5161547;27;20027;-44
2021/09/18 07:28:08;;;;;;;7.05;4.88;;;20.30;99.90;;;;;;5165740;27;20026;-45
2021/09/18 07:30:34;;;;;;;6.30;4.85;;;20.30;99.90;;;;;;5135824;27;20034;-44
2021/09/18 07:33:00;;;;;;;8.50;5.25;;;20.50;99.90;;;;;;5172540;27;20358;-44
2021/09/18 07:35:26;;;;;;;6.57;4.97;;;20.50;99.90;;;;;;5172362;27;20061;-43
2021/09/18 07:37:52;;;;;;;6.30;5.20;;;20.60;99.90;;;;;;5117128;27;20501;-44
2021/09/18 07:40:18;;;;;;;4.72;3.58;;;20.70;99.90;;;;;;5085994;27;20423;-44
2021/09/18 07:42:44;;;;;;;8.35;5.10;;;20.50;99.90;;;;;;5161911;27;20476;-44
2021/09/18 07:45:10;;;;;;;7.55;4.93;;;20.80;99.90;;;;;;5159295;27;20090;-46
2021/09/18 07:47:36;;;;;;;7.28;6.00;;;20.30;99.90;;;;;;5133871;27;20019;-43
2021/09/18 07:50:04;;;;;;;4.65;4.07;;;20.70;99.90;;;;;;5125966;27;20015;-44
2021/09/18 07:52:30;;;;;;;6.60;4.88;;;20.50;99.90;;;;;;5031126;28;20032;-46
2021/09/18 07:54:55;;;;;;;6.30;5.18;;;20.90;99.90;;;;;;5087756;27;20062;-47
2021/09/18 07:57:21;;;;;;;6.25;5.40;;;21.10;99.90;;;;;;5124571;27;20023;-46
2021/09/18 07:59:47;;;;;;;9.90;4.95;;;20.90;99.90;;;;;;5052023;27;20477;-48
2021/09/18 08:02:13;;;;;;;5.28;4.78;;;21.10;99.90;;;;;;5132307;27;20099;-48
2021/09/18 08:04:39;;;;;;;6.07;4.85;;;20.90;99.90;;;;;;5127559;27;20123;-52
2021/09/18 08:07:05;;;;;;;6.07;4.72;;;20.70;99.90;;;;;;5125413;27;20098;-51
2021/09/18 08:09:30;;;;;;;6.85;5.63;;;20.70;99.90;;;;;;5126821;27;20028;-49
2021/09/18 08:11:57;;;;;;;5.60;5.00;;;20.80;99.90;;;;;;5130047;27;20109;-51
2021/09/18 08:14:23;;;;;;;6.43;4.53;;;20.90;99.90;;;;;;5083926;27;20151;-47
2021/09/18 08:16:49;;;;;;;6.93;4.82;;;21.20;99.90;;;;;;5136692;27;20102;-49
2021/09/18 08:19:17;;;;;;;5.38;4.88;;;21.30;99.90;;;;;;5083346;27;20473;-48
2021/09/18 08:21:43;;;;;;;5.88;4.55;;;21.70;99.90;;;;;;5116512;27;20364;-45
2021/09/18 08:24:09;;;;;;;5.15;3.97;;;22.00;99.90;;;;;;5116032;28;20050;-46
2021/09/18 08:26:35;;;;;;;7.00;3.72;;;22.50;99.90;;;;;;5079915;28;20465;-45
2021/09/18 08:29:01;;;;;;;5.07;4.55;;;22.70;99.90;;;;;;5123130;27;20381;-46
2021/09/18 08:31:27;;;;;;;6.13;4.72;;;22.80;99.90;;;;;;5120881;27;20028;-46
2021/09/18 08:33:53;;;;;;;5.40;3.88;;;22.90;99.90;;;;;;5125071;27;20031;-45
2021/09/18 08:36:20;;;;;;;5.40;3.50;;;23.30;99.90;;;;;;5052011;27;20047;-45
2021/09/18 08:38:45;;;;;;;6.95;4.03;;;22.60;99.10;;;;;;5133773;27;20019;-46
2021/09/18 08:41:12;;;;;;;4.35;3.28;;;22.40;99.50;;;;;;5094081;27;20049;-46
2021/09/18 08:43:38;;;;;;;5.43;4.35;;;21.80;99.90;;;;;;5115002;28;20020;-45
2021/09/18 08:46:04;;;;;;;5.80;4.07;;;22.20;99.40;;;;;;5077132;27;20080;-45
2021/09/18 08:48:32;;;;;;;5.10;3.75;;;22.60;99.40;;;;;;5099686;27;20103;-42
2021/09/18 08:50:58;;;;;;;4.07;3.67;;;23.30;99.10;;;;;;5082810;27;20389;-47
2021/09/18 08:53:23;;;;;;;5.60;3.42;;;23.80;97.40;;;;;;5136147;27;20034;-46
2021/09/18 08:55:57;;;;;;;4.10;3.70;;;23.90;97.50;;;;;;5083007;27;20043;-47
2021/09/18 08:58:24;;;;;;;4.15;3.00;;;24.30;96.10;;;;;;5098684;27;20038;-47
2021/09/18 09:00:52;;;;;;;5.15;3.78;;;23.80;94.60;;;;;;5136124;27;20038;-46
2021/09/18 09:03:29;;;;;;;3.80;3.00;;;23.80;95.10;;;;;;5135787;27;20031;-46
2021/09/18 09:06:03;;;;;;;4.72;3.53;;;24.50;95.70;;;;;;5135956;27;20092;-47
2021/09/18 09:08:29;;;;;;;5.20;3.60;;;24.10;94.30;;;;;;5136118;27;20585;-47
2021/09/18 09:10:56;;;;;;;5.32;3.10;;;24.50;94.50;;;;;;5135795;27;20034;-47
2021/09/18 09:13:24;;;;;;;6.35;3.65;;;24.90;94.10;;;;;;5099362;27;20038;-47
2021/09/18 09:16:07;;;;;;;6.55;3.05;;;25.20;92.80;;;;;;5116558;27;20082;-54
2021/09/18 09:18:40;;;;;;;2.80;2.53;;;25.60;92.30;;;;;;5133371;27;20035;-46
2021/09/18 09:21:27;;;;;;;6.20;3.22;;;25.00;92.10;;;;;;5135514;27;20080;-47
2021/09/18 09:24:13;;;;;;;4.30;2.97;;;25.00;92.90;;;;;;5135832;27;20031;-47
2021/09/18 09:26:42;;;;;;;3.35;2.78;;;24.80;92.80;;;;;;5135357;27;20044;-47
2021/09/18 09:29:09;;;;;;;3.95;2.75;;;25.00;91.60;;;;;;5135617;27;20080;-47
2021/09/18 09:31:37;;;;;;;3.10;2.70;;;25.70;92.50;;;;;;5135531;27;20023;-46
2021/09/18 09:34:14;;;;;;;3.67;3.33;;;25.90;92.80;;;;;;5135105;27;20109;-46
2021/09/18 09:36:51;;;;;;;2.92;2.40;;;;;;;;;;5135435;27;20027;-47
2021/09/18 09:39:18;;;;;;;4.72;2.80;;;;;;;;;;5135380;27;20023;-47
2021/09/18 09:41:48;;;;;;;3.03;2.42;;;26.60;89.70;;;;;;5135131;27;20056;-47
2021/09/18 09:44:20;;;;;;;2.72;2.13;;;25.20;87.00;;;;;;5135307;27;20019;-47
2021/09/18 09:47:12;;;;;;;4.00;2.88;;;24.70;88.60;;;;;;5135639;27;20051;-47
2021/09/18 09:49:45;;;;;;;;;;;24.40;90.50;;;;;;5135276;27;20842;-47
2021/09/18 09:52:19;;;;;;;3.20;2.67;;;24.90;90.00;;;;;;5135244;27;19943;-47
2021/09/18 09:54:45;;;;;;;2.45;2.10;;;;;;;;;;5135243;27;20027;-47
2021/09/18 09:57:13;;;;;;;2.67;2.25;;;25.90;86.00;;;;;;5134776;27;20080;-47
2021/09/18 09:59:40;;;;;;;5.07;2.70;;;25.30;85.50;;;;;;5135166;27;20047;-47
2021/09/18 10:02:08;;;;;;;3.53;2.60;;;25.40;87.20;;;;;;5098811;27;20039;-47
2021/09/18 10:04:35;;;;;;;3.45;2.53;;;25.20;87.60;;;;;;5098235;27;20037;-47
2021/09/18 10:07:01;;;;;;;3.20;2.70;;;25.20;87.80;;;;;;5134943;27;20034;-48
2021/09/18 10:09:28;;;;;;;3.47;2.05;;;;;;;;;;5134491;27;20031;-47
2021/09/18 10:11:56;;;;;;;3.20;1.98;;;26.40;84.60;;;;;;5134611;27;20023;-47
2021/09/18 10:14:25;;;;;;;2.85;2.10;;;26.20;83.90;;;;;;5134702;27;20035;-47
2021/09/18 10:16:56;;;;;;;3.55;2.30;;;25.80;83.30;;;;;;5131922;27;20089;-47
2021/09/18 10:19:33;;;;;;;6.90;2.70;;;;;;;;;;5134441;27;20091;-47
2021/09/18 10:24:44;;;;;;;4.03;2.10;;;27.10;81.40;;;;;;5134578;27;20068;-47
2021/09/18 10:27:13;;;;;;;2.67;2.00;;;26.90;81.10;;;;;;5098473;28;20027;-47
2021/09/18 10:29:38;;;;;;;2.60;1.70;;;26.50;80.80;;;;;;5134505;27;20445;-47
2021/09/18 10:32:04;;;;;;;3.15;2.40;;;25.90;79.00;;;;;;5133580;27;20054;-47
2021/09/18 10:34:30;;;;;;;3.90;2.17;;;25.20;81.40;;;;;;5113870;28;20485;-47
2021/09/18 10:36:56;;;;;;;2.50;2.03;;;25.10;86.20;;;;;;5096805;28;20027;-47
2021/09/18 10:39:22;;;;;;;4.30;2.05;;;25.30;86.20;;;;;;5133037;28;20044;-48
2021/09/18 10:41:59;;;;;;;3.30;2.25;;;25.20;88.00;;;;;;5133128;28;20020;-47
2021/09/18 10:44:46;;;;;;;4.03;1.60;;;25.20;88.10;;;;;;5132731;27;20030;-48
2021/09/18 10:47:40;;;;;;;1.88;1.67;;;25.50;89.70;;;;;;5133211;28;20503;-46
2021/09/18 10:50:27;;;;;;;12.30;2.90;;;25.80;90.00;;;;;;5079868;28;20113;-47
2021/09/18 10:53:02;;;;;;;2.78;1.80;;;25.40;90.30;;;;;;5133538;28;20031;-47
2021/09/18 10:55:29;;;;;;;3.95;2.00;;;24.90;90.70;;;;;;5070879;28;20041;-47
2021/09/18 10:57:55;;;;;;;2.83;2.25;;;25.00;91.70;;;;;;5070784;28;20529;-46
2021/09/18 11:00:21;;;;;;;2.55;1.98;;;24.50;92.20;;;;;;5070831;28;20040;-47
2021/09/18 11:02:50;;;;;;;3.70;2.17;;;24.80;92.50;;;;;;5070639;28;20028;-47
2021/09/18 11:05:22;;;;;;;2.00;1.50;;;;;;;;;;5037357;28;20372;-46
2021/09/18 11:07:48;;;;;;;;;;;;;;;;;;5071203;28;20108;-47
2021/09/18 11:10:37;;;;;;;4.68;2.08;;;;;;;;;;5070637;28;20070;-46
2021/09/18 11:13:09;;;;;;;2.83;1.90;;;;;;;;;;5070631;28;20035;-47
2021/09/18 11:15:44;;;;;;;2.53;2.17;;;;;;;;;;5070512;28;20044;-47
2021/09/18 11:18:11;;;;;;;3.95;2.58;;;;;;;;;;5070512;28;20099;-48
2021/09/18 11:20:37;;;;;;;2.38;1.90;;;;;;;;;;5070482;28;20068;-47
2021/09/18 11:23:04;;;;;;;4.28;2.25;;;;;;;;;;5074121;28;20033;-47
2021/09/18 11:25:31;;;;;;;10.13;3.95;;;;;;;;;;5080320;27;20070;-47
2021/09/18 11:28:10;;;;;;;2.35;1.80;;;;;;;;;;5101561;27;20027;-47
2021/09/18 11:30:54;;;;;;;4.20;2.70;;;;;;;;;;5101603;27;20087;-47
2021/09/18 11:33:23;;;;;;;1.95;1.55;;;;;;;;;;5137412;27;20034;-47
2021/09/18 11:35:54;;;;;;;3.08;1.90;;;;;;;;;;5101141;27;20416;-47
2021/09/18 11:38:24;;;;;;;4.97;2.10;;;;;;;;;;5137534;27;20087;-47
2021/09/18 11:40:51;;;;;;;2.20;2.00;;;;;;;;;;5101161;27;20039;-47
2021/09/18 11:43:25;;;;;;;2.80;2.00;;;;;;;;;;5137475;27;20027;-47
2021/09/18 11:45:51;;;;;;;1.98;1.73;;;;;;;;;;5137201;27;20043;-48
2021/09/18 11:48:21;;;;;;;3.08;1.95;;;;;;;;;;5084453;27;20027;-47
2021/09/18 11:50:47;;;;;;;2.90;2.00;;;;;;;;;;5137305;27;20027;-48
2021/09/18 11:53:14;;;;;;;2.33;1.88;;;;;;;;;;5101262;27;20091;-47
2021/09/18 11:55:41;;;;;;;4.68;2.10;;;26.80;79.70;;;;;;5136900;27;20034;-47
2021/09/18 11:58:12;;;;;;;3.08;2.28;;;;;;;;;;5137176;27;20031;-47
2021/09/18 12:01:05;;;;;;;2.58;1.73;;;27.30;87.90;;;;;;5137083;27;20026;-49
2021/09/18 12:03:36;;;;;;;2.22;1.90;;;27.60;85.60;;;;;;5137075;27;20037;-47
2021/09/18 12:06:06;;;;;;;2.92;1.50;;;;;;;;;;5137245;27;20030;-47
2021/09/18 12:08:33;;;;;;;4.18;1.80;;;28.30;93.70;;;;;;5073382;28;20047;-47
2021/09/18 12:11:03;;;;;;;2.20;1.63;;;27.80;76.40;;;;;;5073499;28;20392;-47
2021/09/18 12:13:29;;;;;;;2.75;1.73;;;27.70;77.40;;;;;;5073411;28;20511;-47
2021/09/18 12:15:58;;;;;;;2.78;2.22;;;27.90;95.30;;;;;;5073165;28;20033;-47
2021/09/18 12:18:32;;;;;;;3.15;1.73;;;;;;;;;;5073422;28;20044;-47
2021/09/18 12:21:00;;;;;;;2.00;1.80;;;;;;;;;;5073357;28;20040;-47
2021/09/18 12:23:27;;;;;;;1.48;1.38;;;27.50;96.80;;;;;;5073210;28;20049;-48
2021/09/18 12:25:56;;;;;;;2.22;1.70;;;27.10;77.60;;;;;;5023134;28;20067;-47
2021/09/18 12:28:22;;;;;;;3.17;2.03;;;26.80;78.70;;;;;;5023056;28;20043;-47
2021/09/18 12:30:49;;;;;;;3.17;1.60;;;;;;;;;;5072971;28;20098;-47
2021/09/18 12:33:27;;;;;;;2.78;1.65;;;27.40;69.50;;;;;;5056158;28;20047;-47
2021/09/18 12:36:05;;;;;;;1.92;1.30;;;27.60;70.10;;;;;;5072840;28;20040;-47
2021/09/18 12:38:31;;;;;;;2.28;1.65;;;27.80;68.20;;;;;;5028267;27;20036;-47
2021/09/18 12:41:04;;;;;;;1.70;1.50;;;27.50;68.50;;;;;;5110842;27;20448;-47
2021/09/18 12:43:30;;;;;;;1.58;1.48;;;27.30;70.20;;;;;;5124085;27;20482;-48
2021/09/18 12:46:11;;;;;;;1.65;1.42;;;27.10;70.50;;;;;;5110154;27;20054;-47
2021/09/18 12:48:39;;;;;;;2.07;1.57;;;26.70;71.00;;;;;;5136564;27;20344;-47
2021/09/18 12:51:18;;;;;;;1.95;1.50;;;26.30;70.40;;;;;;5082791;27;20036;-47
2021/09/18 12:53:48;;;;;;;1.75;1.50;;;26.20;71.10;;;;;;5139614;27;20377;-48
2021/09/18 12:56:32;;;;;;;1.65;1.30;;;26.10;71.70;;;;;;5147763;27;20045;-50
2021/09/18 12:59:04;;;;;;;2.30;1.55;;;26.10;73.40;;;;;;5139680;27;20058;-49
2021/09/18 13:01:42;;;;;;;2.38;1.50;;;26.10;83.60;;;;;;5144488;27;20057;-49
2021/09/18 13:04:10;;;;;;;3.30;1.67;;;26.20;82.80;;;;;;5093814;27;20031;-50
2021/09/18 13:06:40;;;;;;;4.05;1.23;;;26.10;81.60;;;;;;5147230;27;20417;-48
2021/09/18 13:09:08;;;;;;;2.78;1.52;;;26.10;81.60;;;;;;5144973;27;20045;-47
2021/09/18 13:11:48;;;;;;;2.40;1.45;;;26.30;82.90;;;;;;5098188;27;20393;-48
2021/09/18 13:14:18;;;;;;;3.30;1.80;;;26.20;83.70;;;;;;5101111;27;20435;-51
2021/09/18 13:16:59;;;;;;;4.65;2.42;;;26.30;83.00;;;;;;5114516;27;20042;-47